Time;durP1;ratioP1;P1;durP2;ratioP2;P2;SDS_P1;SDS_P2;PMS_P1;PMS_P2;Temp;Humidity;BMP_temperature;BMP_pressure;BME280_temperature;BME280_humidity;BME280_pressure;Samples;Min_cycle;Max_cycle;Signal;HPM_P1;HPM_P2
2023/01/11 00:01:04;;;;;;;1.00;0.90;;;5.90;79.10;;;;;;5007372;28;20026;-61
2023/01/11 00:03:30;;;;;;;1.80;1.25;;;5.90;79.10;;;;;;5006417;28;20071;-61
2023/01/11 00:05:57;;;;;;;1.80;1.00;;;5.90;79.00;;;;;;5004229;28;20034;-61
2023/01/11 00:08:24;;;;;;;2.40;1.08;;;5.90;79.00;;;;;;5006373;28;20062;-61
2023/01/11 00:10:50;;;;;;;2.10;1.08;;;5.90;78.90;;;;;;5009634;28;20038;-61
2023/01/11 00:13:16;;;;;;;4.22;1.20;;;5.90;78.70;;;;;;5007903;28;20034;-61
2023/01/11 00:15:41;;;;;;;2.70;1.00;;;5.90;78.60;;;;;;5007997;28;20513;-62
2023/01/11 00:18:08;;;;;;;1.33;0.90;;;6.00;78.60;;;;;;5000836;28;20127;-61
2023/01/11 00:20:34;;;;;;;2.05;1.00;;;6.00;78.50;;;;;;5003095;28;20025;-61
2023/01/11 00:22:59;;;;;;;1.42;1.10;;;6.00;78.40;;;;;;5005538;28;20044;-61
2023/01/11 00:25:26;;;;;;;1.58;0.93;;;6.00;78.40;;;;;;5005698;28;20052;-61
2023/01/11 00:27:53;;;;;;;1.85;0.90;;;6.00;78.30;;;;;;5002031;28;20556;-61
2023/01/11 00:30:18;;;;;;;2.40;1.00;;;5.90;78.30;;;;;;5004701;28;20041;-61
2023/01/11 00:32:44;;;;;;;2.00;1.00;;;6.00;78.20;;;;;;5010660;28;20044;-61
2023/01/11 00:35:10;;;;;;;1.98;1.00;;;6.00;78.10;;;;;;5009022;28;20104;-61
2023/01/11 00:37:35;;;;;;;1.40;0.93;;;6.00;78.10;;;;;;5007545;28;20032;-60
2023/01/11 00:40:01;;;;;;;1.30;0.80;;;6.00;78.10;;;;;;5011155;28;20058;-61
2023/01/11 00:48:03;;;;;;;2.40;0.90;;;6.00;78.80;;;;;;5009363;28;20068;-61
2023/01/11 00:50:35;;;;;;;1.60;0.77;;;6.10;77.90;;;;;;5006903;28;20350;-62
2023/01/11 00:53:01;;;;;;;1.88;0.80;;;6.10;77.70;;;;;;5009565;28;20033;-61
2023/01/11 00:55:27;;;;;;;1.67;0.68;;;6.10;77.60;;;;;;5007499;28;20515;-61
2023/01/11 00:57:53;;;;;;;2.00;0.80;;;6.10;77.50;;;;;;5009224;28;20124;-61
2023/01/11 01:00:20;;;;;;;1.63;0.90;;;6.10;77.50;;;;;;5005677;28;20038;-61
2023/01/11 01:02:46;;;;;;;1.75;0.82;;;6.10;77.40;;;;;;5011459;28;20037;-61
2023/01/11 01:05:12;;;;;;;2.13;0.70;;;6.20;77.40;;;;;;5010335;28;20038;-61
2023/01/11 01:07:38;;;;;;;1.73;0.70;;;6.20;77.20;;;;;;5004181;28;20045;-61
2023/01/11 01:10:04;;;;;;;1.70;0.60;;;6.20;77.10;;;;;;5010899;28;20065;-60
2023/01/11 01:15:14;;;;;;;0.93;0.70;;;6.20;77.10;;;;;;5007985;28;20107;-60
2023/01/11 01:17:40;;;;;;;1.73;0.68;;;6.30;77.20;;;;;;5005196;28;20030;-59
2023/01/11 01:20:06;;;;;;;1.33;0.70;;;6.30;77.10;;;;;;5002581;28;20473;-59
2023/01/11 01:22:32;;;;;;;2.67;0.75;;;6.30;77.00;;;;;;5003017;28;20044;-59
2023/01/11 01:24:58;;;;;;;1.45;0.80;;;6.30;76.90;;;;;;4999544;28;20041;-59
2023/01/11 01:27:24;;;;;;;1.42;0.73;;;6.30;76.70;;;;;;5001909;28;20081;-60
2023/01/11 01:29:49;;;;;;;1.98;0.80;;;6.40;76.70;;;;;;5003637;28;20406;-60
2023/01/11 01:32:15;;;;;;;0.85;0.50;;;6.40;76.50;;;;;;5007804;28;20030;-61
2023/01/11 01:34:40;;;;;;;1.48;0.70;;;6.40;76.50;;;;;;5007877;28;20336;-60
2023/01/11 01:37:07;;;;;;;1.35;0.50;;;6.40;76.40;;;;;;5006304;28;20049;-61
2023/01/11 01:39:33;;;;;;;1.35;0.60;;;6.40;76.20;;;;;;5009987;28;20132;-61
2023/01/11 01:41:59;;;;;;;1.35;0.60;;;6.40;76.10;;;;;;5010987;28;20139;-61
2023/01/11 01:44:46;;;;;;;1.58;0.50;;;6.40;76.00;;;;;;5009173;28;20112;-61
2023/01/11 01:47:12;;;;;;;0.80;0.57;;;6.50;75.80;;;;;;5001893;28;20042;-62
2023/01/11 01:49:39;;;;;;;1.58;0.80;;;6.50;76.10;;;;;;5007205;28;20056;-60
2023/01/11 01:52:05;;;;;;;1.25;0.70;;;6.50;76.00;;;;;;5010983;28;20061;-61
2023/01/11 01:54:36;;;;;;;1.17;0.47;;;6.50;75.90;;;;;;5002547;28;20142;-61
2023/01/11 01:57:09;;;;;;;1.33;0.57;;;6.50;75.80;;;;;;5009112;28;20108;-61
2023/01/11 01:59:34;;;;;;;2.05;0.60;;;6.50;75.80;;;;;;5007090;28;20084;-61
2023/01/11 02:02:00;;;;;;;1.60;0.60;;;6.50;75.90;;;;;;5008077;28;20128;-60
2023/01/11 02:04:33;;;;;;;2.10;0.80;;;6.50;75.90;;;;;;5009983;28;20052;-61
2023/01/11 02:07:10;;;;;;;1.10;0.50;;;6.50;75.60;;;;;;5006260;28;20033;-60
2023/01/11 02:09:57;;;;;;;1.73;0.70;;;6.60;75.70;;;;;;5008835;28;20556;-59
2023/01/11 02:12:26;;;;;;;2.03;0.60;;;6.50;75.60;;;;;;5006656;28;20420;-59
2023/01/11 02:14:53;;;;;;;1.95;0.50;;;6.50;75.50;;;;;;5009694;28;20049;-58
2023/01/11 02:17:18;;;;;;;0.90;0.43;;;6.50;75.50;;;;;;5008088;28;21299;-60
2023/01/11 02:19:53;;;;;;;1.77;0.50;;;6.50;75.60;;;;;;5004764;28;20042;-59
2023/01/11 02:22:37;;;;;;;1.23;0.65;;;6.50;75.50;;;;;;5006992;28;20030;-61
2023/01/11 02:25:22;;;;;;;1.05;0.50;;;6.50;75.20;;;;;;5003729;28;20073;-59
2023/01/11 02:28:07;;;;;;;1.77;0.50;;;6.50;75.70;;;;;;5010985;28;20030;-59
2023/01/11 02:30:37;;;;;;;1.00;0.60;;;6.50;75.50;;;;;;5013483;28;20568;-61
2023/01/11 02:33:13;;;;;;;1.52;0.50;;;6.50;75.70;;;;;;5004670;28;20753;-61
2023/01/11 02:36:18;;;;;;;0.75;0.40;;;6.50;75.30;;;;;;5012671;28;20046;-61
2023/01/11 02:39:11;;;;;;;0.73;0.50;;;6.50;75.20;;;;;;5012416;28;20029;-61
2023/01/11 02:47:27;;;;;;;1.38;0.52;;;6.60;75.50;;;;;;5009530;28;20036;-60
2023/01/11 02:50:08;;;;;;;1.23;0.45;;;6.60;75.30;;;;;;5012885;28;20037;-59
2023/01/11 02:52:44;;;;;;;2.47;0.75;;;6.60;75.20;;;;;;5017206;28;20030;-60
2023/01/11 02:55:13;;;;;;;1.67;0.50;;;6.60;75.20;;;;;;5008934;28;20058;-61
2023/01/11 02:57:41;;;;;;;1.23;0.40;;;6.60;75.10;;;;;;5008512;28;20037;-61
2023/01/11 03:00:09;;;;;;;1.23;0.50;;;6.60;76.00;;;;;;5011629;28;20117;-59
2023/01/11 03:02:34;;;;;;;1.15;0.35;;;6.70;75.10;;;;;;5010935;28;20375;-60
2023/01/11 03:05:00;;;;;;;1.88;0.50;;;6.70;75.10;;;;;;5010451;28;20049;-59
2023/01/11 03:07:42;;;;;;;3.50;0.50;;;6.70;74.90;;;;;;5011913;28;20149;-61
2023/01/11 03:10:20;;;;;;;2.25;0.50;;;6.70;74.40;;;;;;5015047;28;20126;-61
2023/01/11 03:12:53;;;;;;;0.68;0.40;;;6.70;75.60;;;;;;5007681;28;20025;-60
2023/01/11 03:15:30;;;;;;;0.73;0.50;;;6.80;74.90;;;;;;5008085;28;20480;-59
2023/01/11 03:18:27;;;;;;;1.15;0.40;;;6.80;75.30;;;;;;5006753;28;20441;-61
2023/01/11 03:21:20;;;;;;;0.60;0.60;;;6.80;74.70;;;;;;5007128;28;20270;-60
2023/01/11 03:24:01;;;;;;;0.82;0.40;;;6.80;74.60;;;;;;5005612;28;20584;-58
2023/01/11 03:26:52;;;;;;;1.90;0.40;;;6.80;74.70;;;;;;5006390;28;20042;-60
2023/01/11 03:29:26;;;;;;;1.08;0.50;;;6.80;74.60;;;;;;5005312;28;20033;-61
2023/01/11 03:32:19;;;;;;;1.65;0.50;;;6.90;75.00;;;;;;5012804;28;20061;-61
2023/01/11 03:35:09;;;;;;;1.25;0.50;;;6.90;74.70;;;;;;5013302;28;20050;-61
2023/01/11 03:37:57;;;;;;;1.35;0.50;;;6.90;74.80;;;;;;5014674;28;20125;-61
2023/01/11 03:40:29;;;;;;;0.40;0.40;;;6.90;74.70;;;;;;5013986;28;20677;-61
2023/01/11 03:43:12;;;;;;;2.55;0.43;;;6.90;74.90;;;;;;5012239;28;20033;-61
2023/01/11 03:46:05;;;;;;;0.90;0.50;;;7.00;74.80;;;;;;5010005;28;20087;-61
2023/01/11 03:48:39;;;;;;;0.82;0.30;;;7.00;74.90;;;;;;5010400;28;20045;-61
2023/01/11 03:51:09;;;;;;;1.17;0.57;;;7.00;74.90;;;;;;5007542;28;20492;-62
2023/01/11 03:53:37;;;;;;;0.90;0.50;;;7.00;74.80;;;;;;5012689;28;20112;-61
2023/01/11 03:56:08;;;;;;;1.45;0.38;;;7.00;74.60;;;;;;5012279;28;20042;-61
2023/01/11 03:58:34;;;;;;;0.40;0.30;;;7.10;74.70;;;;;;5007921;28;20030;-60
2023/01/11 04:01:00;;;;;;;1.50;0.40;;;7.10;74.70;;;;;;5006651;28;20045;-61
2023/01/11 04:03:27;;;;;;;1.92;0.45;;;7.10;74.70;;;;;;5011874;28;20033;-61
2023/01/11 04:05:57;;;;;;;1.00;0.40;;;7.10;74.60;;;;;;5009779;28;20276;-61
2023/01/11 04:08:23;;;;;;;1.05;0.40;;;7.20;74.50;;;;;;5012164;28;20223;-61
2023/01/11 04:10:48;;;;;;;0.80;0.40;;;7.20;74.40;;;;;;5009033;28;20068;-61
2023/01/11 04:13:14;;;;;;;1.00;0.40;;;7.20;74.20;;;;;;5009141;28;20042;-60
2023/01/11 04:15:39;;;;;;;0.90;0.40;;;7.20;74.20;;;;;;5008421;28;20045;-61
2023/01/11 04:18:05;;;;;;;1.05;0.40;;;7.20;74.20;;;;;;5008470;28;20572;-61
2023/01/11 04:20:36;;;;;;;0.52;0.40;;;7.20;73.90;;;;;;5009960;28;20068;-59
2023/01/11 04:23:03;;;;;;;0.82;0.40;;;7.30;74.80;;;;;;5008017;28;20084;-61
2023/01/11 04:25:29;;;;;;;1.38;0.38;;;7.30;74.20;;;;;;5002959;28;20037;-60
2023/01/11 04:27:54;;;;;;;1.33;0.52;;;7.30;74.10;;;;;;5001514;28;20508;-61
2023/01/11 04:30:20;;;;;;;0.77;0.50;;;7.30;74.10;;;;;;4999934;28;20924;-61
2023/01/11 04:32:46;;;;;;;0.82;0.52;;;7.30;74.20;;;;;;5006119;28;20409;-59
2023/01/11 04:35:12;;;;;;;1.88;0.50;;;7.40;74.20;;;;;;5003865;28;20309;-59
2023/01/11 04:37:37;;;;;;;1.67;0.60;;;7.40;74.20;;;;;;5007038;28;20129;-59
2023/01/11 04:40:03;;;;;;;1.60;0.50;;;7.40;74.20;;;;;;5001754;28;20116;-59
2023/01/11 04:42:29;;;;;;;1.10;0.45;;;7.40;74.20;;;;;;5000509;28;20042;-59
2023/01/11 04:44:54;;;;;;;0.40;0.40;;;7.40;74.20;;;;;;5004477;28;20056;-61
2023/01/11 04:47:22;;;;;;;1.50;0.50;;;7.40;74.00;;;;;;5002469;28;20052;-60
2023/01/11 04:49:48;;;;;;;1.00;0.60;;;7.40;74.10;;;;;;4998654;28;20069;-61
2023/01/11 04:52:15;;;;;;;1.42;0.40;;;7.50;74.20;;;;;;5001841;28;20132;-60
2023/01/11 04:54:41;;;;;;;0.73;0.45;;;7.50;74.10;;;;;;5006405;28;20462;-60
2023/01/11 04:57:09;;;;;;;2.15;0.77;;;7.50;74.10;;;;;;5003965;28;20041;-61
2023/01/11 04:59:35;;;;;;;1.92;0.50;;;7.50;73.90;;;;;;5004124;28;20073;-58
2023/01/11 05:02:00;;;;;;;0.75;0.47;;;7.50;73.90;;;;;;5004862;28;20148;-60
2023/01/11 05:04:26;;;;;;;0.68;0.52;;;7.50;73.80;;;;;;5003939;28;20042;-61
2023/01/11 05:06:52;;;;;;;1.20;0.40;;;7.50;73.70;;;;;;5003622;28;20065;-59
2023/01/11 05:09:18;;;;;;;0.77;0.50;;;7.50;73.70;;;;;;5010277;28;20041;-60
2023/01/11 05:11:44;;;;;;;1.05;0.60;;;7.50;73.60;;;;;;5009418;28;20493;-61
2023/01/11 05:14:10;;;;;;;5.78;2.10;;;7.50;73.50;;;;;;5008684;28;20127;-60
2023/01/11 05:16:36;;;;;;;23.33;9.45;;;7.50;73.60;;;;;;5008749;28;20100;-60
2023/01/11 05:19:02;;;;;;;8.10;5.85;;;7.50;73.40;;;;;;5006501;28;20038;-59
2023/01/11 05:21:31;;;;;;;3.13;2.10;;;7.50;73.30;;;;;;5005222;28;20036;-60
2023/01/11 05:23:58;;;;;;;1.70;1.00;;;7.50;73.30;;;;;;5006694;28;20033;-60
2023/01/11 05:26:26;;;;;;;2.17;1.00;;;7.50;73.20;;;;;;5003849;28;20080;-61
2023/01/11 05:28:53;;;;;;;1.05;0.52;;;7.50;73.20;;;;;;5007888;28;20253;-60
2023/01/11 05:31:19;;;;;;;1.15;0.50;;;7.50;73.00;;;;;;5011935;28;20049;-61
2023/01/11 05:33:45;;;;;;;0.85;0.50;;;7.50;73.00;;;;;;5014520;28;20120;-61
2023/01/11 05:36:13;;;;;;;1.17;0.60;;;7.50;72.90;;;;;;5012683;28;20034;-60
2023/01/11 05:38:39;;;;;;;1.38;0.57;;;7.50;72.80;;;;;;5010042;28;20038;-61
2023/01/11 05:41:09;;;;;;;1.45;0.52;;;7.50;72.70;;;;;;5010938;28;20112;-61
2023/01/11 05:46:20;;;;;;;0.73;0.40;;;7.40;72.70;;;;;;5012845;28;20071;-61
2023/01/11 05:48:46;;;;;;;2.38;0.43;;;7.40;72.40;;;;;;5010211;28;20113;-61
2023/01/11 05:51:11;;;;;;;0.50;0.40;;;7.40;72.40;;;;;;5014469;28;20045;-61
2023/01/11 05:53:37;;;;;;;0.70;0.45;;;7.30;72.40;;;;;;5009791;28;20129;-60
2023/01/11 05:56:03;;;;;;;2.15;0.70;;;7.30;72.40;;;;;;5014837;28;20034;-59
2023/01/11 05:58:28;;;;;;;0.70;0.40;;;7.30;72.40;;;;;;5014364;28;20491;-60
2023/01/11 06:00:54;;;;;;;1.83;0.50;;;7.30;72.50;;;;;;5016801;28;20034;-58
2023/01/11 06:03:22;;;;;;;0.82;0.60;;;7.30;72.50;;;;;;5018909;28;20041;-59
2023/01/11 06:05:48;;;;;;;0.63;0.50;;;7.20;72.40;;;;;;5019189;28;20434;-60
2023/01/11 06:08:14;;;;;;;0.75;0.40;;;7.20;72.50;;;;;;5018861;28;20087;-59
2023/01/11 06:10:40;;;;;;;0.60;0.50;;;7.20;72.50;;;;;;5018865;28;20034;-59
2023/01/11 06:15:51;;;;;;;;;;;7.20;72.60;;;;;;5014442;28;20092;-58
2023/01/11 06:18:16;;;;;;;0.65;0.52;;;7.30;72.60;;;;;;5016107;28;20380;-60
2023/01/11 06:20:42;;;;;;;0.57;0.50;;;7.30;72.70;;;;;;5015252;28;20092;-59
2023/01/11 06:23:08;;;;;;;0.63;0.55;;;7.30;72.50;;;;;;5021300;28;20482;-62
2023/01/11 06:25:36;;;;;;;0.77;0.52;;;7.30;72.50;;;;;;5020777;28;20488;-61
2023/01/11 06:28:02;;;;;;;0.50;0.50;;;7.30;72.40;;;;;;5018910;28;20505;-61
2023/01/11 06:30:28;;;;;;;1.10;0.60;;;7.20;72.60;;;;;;5015339;28;20048;-59
2023/01/11 06:32:53;;;;;;;0.88;0.50;;;7.20;72.50;;;;;;5013707;28;20443;-60
2023/01/11 06:35:19;;;;;;;0.55;0.40;;;7.20;72.50;;;;;;5015563;28;20034;-61
2023/01/11 06:37:45;;;;;;;0.80;0.57;;;7.20;73.30;;;;;;5017377;28;20261;-61
2023/01/11 06:40:11;;;;;;;0.73;0.40;;;7.20;72.50;;;;;;5011745;28;20659;-61
2023/01/11 06:42:37;;;;;;;0.70;0.50;;;7.20;72.60;;;;;;5013186;28;20053;-61
2023/01/11 06:45:03;;;;;;;1.00;0.50;;;7.20;72.80;;;;;;5013046;28;20099;-61
2023/01/11 06:47:28;;;;;;;2.25;0.60;;;7.20;72.60;;;;;;5012972;28;20509;-59
2023/01/11 06:49:54;;;;;;;1.00;0.70;;;7.20;72.60;;;;;;5014526;28;20046;-60
2023/01/11 06:52:19;;;;;;;1.08;0.52;;;7.10;72.70;;;;;;5015125;28;20129;-60
2023/01/11 06:54:45;;;;;;;1.20;0.60;;;7.10;72.70;;;;;;5012994;28;21132;-60
2023/01/11 06:57:11;;;;;;;2.78;1.00;;;7.10;72.80;;;;;;5014827;28;20085;-61
2023/01/11 06:59:38;;;;;;;1.30;0.70;;;7.10;73.00;;;;;;5014173;28;20038;-61
2023/01/11 07:02:05;;;;;;;2.53;0.70;;;7.20;73.10;;;;;;5013710;28;20060;-61
2023/01/11 07:04:30;;;;;;;1.63;0.50;;;7.10;73.10;;;;;;5014412;28;20113;-60
2023/01/11 07:06:56;;;;;;;1.83;0.70;;;7.20;73.20;;;;;;5014595;28;20057;-59
2023/01/11 07:09:22;;;;;;;1.33;0.50;;;7.10;73.10;;;;;;5015626;28;20687;-61
2023/01/11 07:11:47;;;;;;;0.60;0.45;;;7.10;73.10;;;;;;5011891;28;20061;-60
2023/01/11 07:14:18;;;;;;;0.40;0.30;;;7.20;73.20;;;;;;5015580;28;20607;-60
2023/01/11 07:16:44;;;;;;;1.33;0.50;;;7.10;73.00;;;;;;5014479;28;20124;-59
2023/01/11 07:19:10;;;;;;;1.50;0.52;;;7.10;73.90;;;;;;5013589;28;20034;-60
2023/01/11 07:21:36;;;;;;;1.30;0.50;;;7.10;73.20;;;;;;5015352;28;20032;-60
2023/01/11 07:24:02;;;;;;;0.80;0.43;;;7.10;73.30;;;;;;5010639;28;20760;-60
2023/01/11 07:26:28;;;;;;;1.15;0.50;;;7.10;73.30;;;;;;5016075;28;20047;-61
2023/01/11 07:28:54;;;;;;;3.38;0.50;;;7.10;73.50;;;;;;5013143;28;20037;-61
2023/01/11 07:31:19;;;;;;;3.20;0.63;;;7.10;73.60;;;;;;5014763;28;20046;-61
2023/01/11 07:33:45;;;;;;;0.65;0.52;;;7.10;73.70;;;;;;5010619;28;20041;-61
2023/01/11 07:36:10;;;;;;;1.05;0.60;;;7.10;73.70;;;;;;5013133;28;20034;-61
2023/01/11 07:38:36;;;;;;;0.95;0.40;;;7.10;73.90;;;;;;5013439;28;20030;-61
2023/01/11 07:43:10;;;;;;;0.57;0.43;;;7.20;73.90;;;;;;5015890;28;20034;-61
2023/01/11 07:43:47;;;;;;;0.77;0.57;;;7.20;74.00;;;;;;5008847;28;20408;-60
2023/01/11 07:46:13;;;;;;;0.80;0.60;;;7.20;73.90;;;;;;5014728;28;20038;-61
2023/01/11 07:48:38;;;;;;;1.20;0.70;;;7.20;74.00;;;;;;5013068;28;20098;-61
2023/01/11 07:51:04;;;;;;;1.55;0.73;;;7.20;74.20;;;;;;5014258;28;20398;-60
2023/01/11 07:53:29;;;;;;;1.58;0.80;;;7.20;74.20;;;;;;5009950;28;20064;-61
2023/01/11 07:55:55;;;;;;;0.85;0.50;;;7.30;74.40;;;;;;5014556;28;20045;-61
2023/01/11 07:58:20;;;;;;;0.82;0.43;;;7.30;74.40;;;;;;5012583;28;20065;-61
2023/01/11 08:00:46;;;;;;;2.97;0.90;;;7.30;74.60;;;;;;5013022;28;20040;-60
2023/01/11 08:03:11;;;;;;;0.60;0.60;;;7.30;74.60;;;;;;5013542;28;20422;-60
2023/01/11 08:05:37;;;;;;;0.50;0.40;;;7.30;74.60;;;;;;5011615;28;20036;-59
2023/01/11 08:08:04;;;;;;;2.28;0.70;;;7.40;74.70;;;;;;5014472;28;20515;-60
2023/01/11 08:10:29;;;;;;;1.17;0.70;;;7.40;74.70;;;;;;5014786;28;20429;-61
2023/01/11 08:15:42;;;;;;;1.37;0.70;;;7.40;74.90;;;;;;5012768;28;20571;-61
2023/01/11 08:18:10;;;;;;;1.60;1.08;;;7.40;74.90;;;;;;5013569;28;20030;-60
2023/01/11 08:20:36;;;;;;;2.85;1.80;;;7.50;75.10;;;;;;5013483;28;20192;-58
2023/01/11 08:23:03;;;;;;;3.20;1.42;;;7.50;75.10;;;;;;5013053;28;20482;-59
2023/01/11 08:25:29;;;;;;;1.50;0.80;;;7.50;75.30;;;;;;5010713;28;20505;-59
2023/01/11 08:27:57;;;;;;;0.93;0.57;;;7.50;76.10;;;;;;5012322;28;20409;-58
2023/01/11 08:30:23;;;;;;;1.08;0.63;;;7.60;75.40;;;;;;5012168;28;20034;-58
2023/01/11 08:32:48;;;;;;;2.55;0.70;;;7.60;75.40;;;;;;5014195;28;20546;-59
2023/01/11 08:35:14;;;;;;;1.25;0.80;;;7.60;75.50;;;;;;5010373;28;20540;-59
2023/01/11 08:37:39;;;;;;;1.15;0.77;;;7.70;75.70;;;;;;5009652;28;20095;-60
2023/01/11 08:40:05;;;;;;;1.88;0.95;;;7.70;75.70;;;;;;5013618;28;20782;-61
2023/01/11 08:42:32;;;;;;;1.15;1.02;;;7.80;75.80;;;;;;5013479;28;20111;-61
2023/01/11 08:44:58;;;;;;;1.23;0.85;;;7.80;75.80;;;;;;5010958;28;20034;-61
2023/01/11 08:47:23;;;;;;;0.77;0.60;;;7.90;75.80;;;;;;5013780;28;20410;-61
2023/01/11 08:49:49;;;;;;;4.03;0.70;;;8.00;75.90;;;;;;5008110;28;20081;-60
2023/01/11 08:52:15;;;;;;;3.50;0.60;;;8.00;75.90;;;;;;5009265;28;20108;-59
2023/01/11 08:54:41;;;;;;;1.40;0.68;;;8.10;76.00;;;;;;5008852;28;20038;-61
2023/01/11 08:57:06;;;;;;;1.45;0.60;;;8.20;76.00;;;;;;5014440;28;20054;-58
2023/01/11 08:59:32;;;;;;;0.75;0.50;;;8.20;75.90;;;;;;5012644;28;20042;-60
2023/01/11 09:01:58;;;;;;;0.40;0.40;;;8.30;76.00;;;;;;5009465;28;20135;-61
2023/01/11 09:04:24;;;;;;;0.80;0.45;;;8.40;76.00;;;;;;5014359;28;20128;-60
2023/01/11 09:06:50;;;;;;;0.80;0.40;;;8.50;76.00;;;;;;5010562;28;20048;-61
2023/01/11 09:09:15;;;;;;;0.63;0.50;;;8.50;75.90;;;;;;5013599;28;20033;-60
2023/01/11 09:11:53;;;;;;;0.52;0.52;;;8.60;76.00;;;;;;5013051;28;20383;-60
2023/01/11 09:14:24;;;;;;;0.70;0.50;;;8.70;76.00;;;;;;5015152;28;20040;-60
2023/01/11 09:16:51;;;;;;;1.38;0.70;;;8.80;76.00;;;;;;5012632;28;20060;-61
2023/01/11 09:19:16;;;;;;;0.70;0.50;;;8.80;76.00;;;;;;5013720;28;20037;-60
2023/01/11 09:21:44;;;;;;;1.95;0.30;;;8.90;76.00;;;;;;5013405;28;20041;-59
2023/01/11 09:24:09;;;;;;;1.52;0.47;;;9.00;76.00;;;;;;5010665;28;20042;-60
2023/01/11 09:26:36;;;;;;;0.50;0.50;;;9.00;75.80;;;;;;5014001;28;20034;-60
2023/01/11 09:29:02;;;;;;;0.95;0.60;;;9.10;75.90;;;;;;5014634;28;20046;-61
2023/01/11 09:31:28;;;;;;;1.88;0.60;;;9.10;75.80;;;;;;5017699;28;20088;-61
2023/01/11 09:33:53;;;;;;;2.03;0.50;;;9.20;75.80;;;;;;5018476;28;20125;-61
2023/01/11 09:36:20;;;;;;;0.32;0.32;;;9.30;75.70;;;;;;5017786;28;20068;-61
2023/01/11 09:38:49;;;;;;;0.57;0.40;;;9.30;75.60;;;;;;5016263;28;20041;-61
2023/01/11 09:41:27;;;;;;;0.70;0.40;;;9.50;75.50;;;;;;5019458;28;20061;-61
2023/01/11 09:44:14;;;;;;;0.75;0.30;;;9.50;75.40;;;;;;5016962;28;20034;-58
2023/01/11 09:46:47;;;;;;;1.10;0.40;;;9.50;74.80;;;;;;5017905;28;20456;-60
2023/01/11 09:49:26;;;;;;;1.00;0.40;;;9.60;75.00;;;;;;5017500;28;20037;-60
2023/01/11 09:52:04;;;;;;;1.05;0.30;;;9.70;74.70;;;;;;5018591;28;20052;-59
2023/01/11 09:54:30;;;;;;;0.43;0.30;;;9.70;74.60;;;;;;5013298;28;20075;-60
2023/01/11 09:57:12;;;;;;;0.65;0.38;;;9.70;74.60;;;;;;5017539;28;20524;-61
2023/01/11 09:59:57;;;;;;;0.80;0.40;;;9.80;74.30;;;;;;5015241;28;20037;-59
2023/01/11 10:02:39;;;;;;;0.63;0.30;;;9.80;74.20;;;;;;5018721;28;20521;-60
2023/01/11 10:05:41;;;;;;;0.40;0.30;;;9.80;74.00;;;;;;5017497;28;20284;-61
2023/01/11 10:08:42;;;;;;;1.38;0.30;;;9.90;74.10;;;;;;5015992;28;20106;-61
2023/01/11 10:11:22;;;;;;;1.30;0.57;;;9.90;74.20;;;;;;5015887;28;20118;-59
2023/01/11 10:14:02;;;;;;;1.40;0.40;;;9.90;74.10;;;;;;5015626;28;20071;-59
2023/01/11 10:16:59;;;;;;;0.45;0.30;;;10.00;74.10;;;;;;5017471;28;20048;-61
2023/01/11 10:19:37;;;;;;;1.77;0.40;;;10.00;73.90;;;;;;5015290;28;20397;-60
2023/01/11 10:22:14;;;;;;;0.32;0.30;;;10.00;74.00;;;;;;5019029;28;20493;-60
2023/01/11 10:24:55;;;;;;;1.17;0.43;;;10.10;73.90;;;;;;5015329;28;20044;-60
2023/01/11 10:27:37;;;;;;;0.40;0.40;;;10.10;73.90;;;;;;5014856;28;20068;-61
2023/01/11 10:30:50;;;;;;;0.40;0.35;;;10.10;73.60;;;;;;5016773;28;20033;-61
2023/01/11 10:36:24;;;;;;;0.57;0.35;;;10.20;73.80;;;;;;5016639;28;20030;-61
2023/01/11 10:39:09;;;;;;;0.30;0.30;;;10.20;74.20;;;;;;5013810;28;20515;-60
2023/01/11 10:41:53;;;;;;;;;;;10.20;73.70;;;;;;5017231;28;20072;-61
2023/01/11 10:44:30;;;;;;;2.05;0.30;;;10.30;73.50;;;;;;5017299;28;20384;-61
2023/01/11 10:46:58;;;;;;;0.68;0.30;;;10.40;73.90;;;;;;5016663;28;20038;-60
2023/01/11 10:49:27;;;;;;;0.30;0.30;;;10.30;74.00;;;;;;5015728;28;20042;-60
2023/01/11 10:51:57;;;;;;;0.55;0.30;;;10.40;74.10;;;;;;5017273;28;20622;-59
2023/01/11 10:54:32;;;;;;;0.60;0.45;;;10.40;74.20;;;;;;5015666;28;20107;-61
2023/01/11 10:57:12;;;;;;;0.50;0.30;;;10.40;74.20;;;;;;5015764;28;20531;-60
2023/01/11 10:59:45;;;;;;;1.35;0.40;;;10.40;74.30;;;;;;5015069;28;20069;-62
2023/01/11 11:02:29;;;;;;;2.50;0.60;;;10.40;74.20;;;;;;5017956;28;20037;-63
2023/01/11 11:05:26;;;;;;;1.13;0.60;;;10.40;73.90;;;;;;5015258;28;20038;-62
2023/01/11 11:08:19;;;;;;;0.50;0.30;;;10.40;74.10;;;;;;5018021;28;20041;-62
2023/01/11 11:11:16;;;;;;;0.52;0.40;;;10.40;74.10;;;;;;5011042;28;20034;-62
2023/01/11 11:14:00;;;;;;;0.80;0.40;;;10.50;74.00;;;;;;5015945;28;20461;-62
2023/01/11 11:16:44;;;;;;;0.40;0.38;;;10.50;74.10;;;;;;5013729;28;20481;-62
2023/01/11 11:19:13;;;;;;;1.63;0.90;;;10.50;74.10;;;;;;5015841;28;20592;-62
2023/01/11 11:21:42;;;;;;;1.42;1.08;;;10.50;74.00;;;;;;5015840;28;20038;-61
2023/01/11 11:24:31;;;;;;;1.13;0.32;;;10.60;74.00;;;;;;5015514;28;20108;-61
2023/01/11 11:27:12;;;;;;;0.80;0.50;;;10.60;74.00;;;;;;5014422;28;20038;-62
2023/01/11 11:29:41;;;;;;;0.70;0.60;;;10.60;74.10;;;;;;5016732;28;20041;-62
2023/01/11 11:32:19;;;;;;;1.17;0.80;;;10.60;74.20;;;;;;5015619;28;20129;-63
2023/01/11 11:34:47;;;;;;;0.60;0.50;;;10.70;74.20;;;;;;5012825;28;20068;-63
2023/01/11 11:37:40;;;;;;;0.47;0.40;;;10.70;74.00;;;;;;5016113;28;20516;-63
2023/01/11 11:40:15;;;;;;;0.88;0.30;;;10.80;74.00;;;;;;5014462;28;20390;-62
2023/01/11 11:42:41;;;;;;;0.55;0.40;;;10.80;74.20;;;;;;5013384;28;20182;-63
2023/01/11 11:45:09;;;;;;;0.35;0.20;;;10.90;74.20;;;;;;5015369;28;20128;-61
2023/01/11 11:47:36;;;;;;;0.60;0.30;;;10.90;74.00;;;;;;5015406;28;20037;-62
2023/01/11 11:50:17;;;;;;;1.02;0.40;;;10.90;73.90;;;;;;5016573;28;20030;-62
2023/01/11 11:52:48;;;;;;;1.45;0.40;;;11.00;73.70;;;;;;5015370;28;20510;-62
2023/01/11 11:55:23;;;;;;;1.40;0.30;;;11.00;73.90;;;;;;5014853;28;20105;-62
2023/01/11 11:57:49;;;;;;;1.15;0.30;;;11.00;73.80;;;;;;5015572;28;20030;-62
2023/01/11 12:00:29;;;;;;;0.68;0.50;;;11.10;73.90;;;;;;5014424;28;20036;-62
2023/01/11 12:03:06;;;;;;;1.13;0.68;;;11.10;73.60;;;;;;5014362;28;20033;-62
2023/01/11 12:05:32;;;;;;;0.52;0.40;;;11.10;73.90;;;;;;5015138;28;20115;-62
2023/01/11 12:07:58;;;;;;;0.95;0.73;;;11.10;74.10;;;;;;5015721;28;20033;-63
2023/01/11 12:10:29;;;;;;;1.10;0.60;;;11.10;74.20;;;;;;5014323;28;20037;-62
2023/01/11 12:13:00;;;;;;;0.50;0.40;;;11.10;74.40;;;;;;5013421;28;20049;-62
2023/01/11 12:15:29;;;;;;;2.22;0.65;;;11.10;74.60;;;;;;5012898;28;20417;-62
2023/01/11 12:18:32;;;;;;;1.58;0.40;;;11.10;75.60;;;;;;5016211;28;20042;-60
2023/01/11 12:21:16;;;;;;;0.65;0.50;;;11.10;75.10;;;;;;5012717;28;20044;-61
2023/01/11 12:23:42;;;;;;;0.52;0.40;;;11.10;75.10;;;;;;5013239;28;20061;-62
2023/01/11 12:26:15;;;;;;;1.10;0.50;;;11.10;75.10;;;;;;5012892;28;20036;-60
2023/01/11 12:29:22;;;;;;;1.48;0.55;;;11.10;75.40;;;;;;5014216;28;20105;-62
2023/01/11 12:32:09;;;;;;;0.90;0.40;;;11.10;75.70;;;;;;5002007;28;20037;-61
2023/01/11 12:35:27;;;;;;;0.63;0.50;;;11.10;75.90;;;;;;5012988;28;20061;-62
2023/01/11 12:38:11;;;;;;;0.80;0.63;;;11.00;76.10;;;;;;4999262;28;20049;-63
2023/01/11 12:41:09;;;;;;;0.95;0.40;;;11.00;76.00;;;;;;5014209;28;20037;-62
2023/01/11 12:43:40;;;;;;;0.93;0.47;;;11.00;76.50;;;;;;5012547;28;20563;-62
2023/01/11 12:46:19;;;;;;;0.52;0.30;;;11.00;76.50;;;;;;5014764;28;20505;-63
2023/01/11 12:49:22;;;;;;;0.40;0.30;;;11.00;76.80;;;;;;5012661;28;22386;-62
2023/01/11 12:52:18;;;;;;;0.57;0.57;;;11.00;76.90;;;;;;5016201;28;20109;-63
2023/01/11 12:55:01;;;;;;;1.88;0.93;;;10.90;77.30;;;;;;5015360;28;20416;-63
2023/01/11 12:57:50;;;;;;;1.73;0.60;;;10.90;77.30;;;;;;5016908;28;20045;-61
2023/01/11 13:00:23;;;;;;;1.70;0.50;;;10.90;77.70;;;;;;5014971;28;20420;-62
2023/01/11 13:03:05;;;;;;;1.52;0.40;;;10.90;77.60;;;;;;5014723;28;20029;-63
2023/01/11 13:06:03;;;;;;;0.75;0.50;;;10.90;78.40;;;;;;5017922;28;20329;-63
2023/01/11 13:08:47;;;;;;;2.92;0.35;;;10.90;78.50;;;;;;5016215;28;20087;-63
2023/01/11 13:11:33;;;;;;;0.40;0.20;;;10.80;78.40;;;;;;5014047;28;20041;-61
2023/01/11 13:14:23;;;;;;;0.82;0.20;;;10.90;78.80;;;;;;5015620;28;20079;-62
2023/01/11 13:17:00;;;;;;;0.40;0.32;;;10.80;79.10;;;;;;5016163;28;20037;-62
2023/01/11 13:19:40;;;;;;;1.48;0.60;;;10.80;79.10;;;;;;5015243;28;20455;-62
2023/01/11 13:22:12;;;;;;;0.55;0.40;;;10.80;79.80;;;;;;5016841;28;20112;-62
2023/01/11 13:24:40;;;;;;;0.30;0.30;;;10.80;79.80;;;;;;5016002;28;20120;-62
2023/01/11 13:27:11;;;;;;;0.65;0.30;;;10.80;80.80;;;;;;5015067;28;20038;-62
2023/01/11 13:29:41;;;;;;;1.13;0.40;;;10.80;80.10;;;;;;5015812;28;20038;-62
2023/01/11 13:32:14;;;;;;;0.70;0.52;;;10.80;80.30;;;;;;5016314;28;20045;-62
2023/01/11 13:34:51;;;;;;;0.47;0.35;;;10.80;80.60;;;;;;5014402;28;20042;-63
2023/01/11 13:37:36;;;;;;;0.40;0.40;;;10.80;80.70;;;;;;5017216;28;20072;-63
2023/01/11 13:40:18;;;;;;;2.20;0.40;;;10.80;80.50;;;;;;5014627;28;20108;-62
2023/01/11 13:42:52;;;;;;;0.55;0.30;;;10.70;80.90;;;;;;5016183;28;20034;-63
2023/01/11 13:45:23;;;;;;;0.20;0.20;;;10.70;80.50;;;;;;5015081;28;20064;-63